Time;durP1;ratioP1;P1;durP2;ratioP2;P2;SDS_P1;SDS_P2;PMS_P1;PMS_P2;Temp;Humidity;BMP_temperature;BMP_pressure;BME280_temperature;BME280_humidity;BME280_pressure;Samples;Min_cycle;Max_cycle;Signal;HPM_P1;HPM_P2
2023/04/01 00:00:25;;;;;;;5.40;4.13;;;9.70;99.90;;;;;;4985891;28;20240;-82
2023/04/01 00:02:52;;;;;;;8.63;4.17;;;9.70;99.90;;;;;;4984755;28;20230;-80
2023/04/01 00:05:21;;;;;;;6.50;4.23;;;9.70;99.90;;;;;;4984988;28;20226;-80
2023/04/01 00:07:48;;;;;;;7.73;4.77;;;9.70;99.90;;;;;;4994671;28;20283;-81
2023/04/01 00:10:15;;;;;;;8.33;4.60;;;9.70;99.90;;;;;;4987258;28;20220;-80
2023/04/01 00:12:42;;;;;;;10.30;4.57;;;9.70;99.90;;;;;;4994858;28;20232;-80
2023/04/01 00:15:11;;;;;;;7.20;4.70;;;9.70;99.90;;;;;;4986746;28;20228;-80
2023/04/01 00:17:38;;;;;;;7.87;4.77;;;9.70;99.90;;;;;;4986440;28;20232;-80
2023/04/01 00:20:07;;;;;;;9.03;5.57;;;9.70;99.90;;;;;;4990657;28;20248;-80
2023/04/01 00:22:36;;;;;;;8.07;4.57;;;9.70;99.90;;;;;;4990829;28;20235;-80
2023/04/01 00:25:03;;;;;;;9.63;4.70;;;9.70;99.90;;;;;;4985057;28;20229;-80
2023/04/01 00:27:29;;;;;;;6.83;4.70;;;9.70;99.90;;;;;;4988075;28;20232;-81
2023/04/01 00:29:56;;;;;;;8.77;4.90;;;9.70;99.90;;;;;;4995993;28;20227;-80
2023/04/01 00:32:23;;;;;;;9.53;5.47;;;9.80;99.90;;;;;;4985300;28;20224;-81
2023/04/01 00:34:52;;;;;;;7.60;5.33;;;9.70;99.90;;;;;;4994377;28;20226;-81
2023/04/01 00:37:19;;;;;;;6.30;4.33;;;9.70;99.90;;;;;;4979541;28;20292;-81
2023/04/01 00:39:47;;;;;;;8.57;5.30;;;9.70;99.90;;;;;;4993543;28;20320;-81
2023/04/01 00:42:14;;;;;;;9.50;5.00;;;9.70;99.90;;;;;;4994721;28;20228;-80
2023/04/01 00:44:41;;;;;;;10.93;5.53;;;9.70;99.90;;;;;;4999506;28;20227;-81
2023/04/01 00:47:08;;;;;;;8.67;5.50;;;9.70;99.90;;;;;;5002690;28;20338;-80
2023/04/01 00:49:38;;;;;;;7.57;5.20;;;9.60;99.90;;;;;;4995280;28;20229;-80
2023/04/01 00:52:08;;;;;;;7.07;4.73;;;9.60;99.90;;;;;;4985699;28;20231;-79
2023/04/01 00:54:37;;;;;;;7.23;5.17;;;9.60;99.90;;;;;;4976300;28;20234;-81
2023/04/01 00:57:08;;;;;;;9.23;5.30;;;9.60;99.90;;;;;;4989791;28;20279;-80
2023/04/01 00:59:39;;;;;;;9.17;5.80;;;9.60;99.90;;;;;;5002397;28;20913;-79
2023/04/01 01:02:10;;;;;;;7.70;5.23;;;9.60;99.90;;;;;;4978344;28;20245;-80
2023/04/01 01:04:38;;;;;;;8.57;5.73;;;9.60;99.90;;;;;;4987105;28;20245;-80
2023/04/01 01:07:17;;;;;;;7.37;5.27;;;9.60;99.90;;;;;;4994263;28;20289;-80
2023/04/01 01:09:54;;;;;;;8.07;5.03;;;9.50;99.90;;;;;;4991915;28;20307;-80
2023/04/01 01:12:26;;;;;;;9.73;5.70;;;9.50;99.90;;;;;;4980270;28;20242;-80
2023/04/01 01:14:59;;;;;;;9.63;5.47;;;9.50;99.90;;;;;;4994096;28;20225;-79
2023/04/01 01:17:36;;;;;;;7.13;4.93;;;9.50;99.90;;;;;;4994669;28;20235;-80
2023/04/01 01:20:47;;;;;;;7.90;5.40;;;9.50;99.90;;;;;;4995421;28;20240;-80
2023/04/01 01:23:42;;;;;;;8.23;4.83;;;9.50;99.90;;;;;;4926642;29;20239;-80
2023/04/01 01:26:45;;;;;;;8.63;5.57;;;9.50;99.90;;;;;;4979525;28;20314;-80
2023/04/01 01:29:30;;;;;;;9.90;5.20;;;9.50;99.90;;;;;;4982756;28;20228;-80
2023/04/01 01:32:03;;;;;;;7.77;5.07;;;9.50;99.90;;;;;;4995960;28;20235;-80
2023/04/01 01:34:38;;;;;;;12.30;5.47;;;9.50;99.90;;;;;;5003546;28;20314;-79
2023/04/01 01:37:11;;;;;;;8.37;5.30;;;9.40;99.90;;;;;;4999691;28;20226;-80
2023/04/01 01:39:39;;;;;;;9.57;5.20;;;9.40;99.90;;;;;;4998527;28;20235;-79
2023/04/01 01:42:11;;;;;;;8.03;5.43;;;9.40;99.90;;;;;;5003117;28;20222;-79
2023/04/01 01:44:41;;;;;;;7.87;5.60;;;9.40;99.90;;;;;;5004797;28;20776;-80
2023/04/01 01:47:08;;;;;;;9.50;5.77;;;9.40;99.90;;;;;;5001199;28;20225;-80
2023/04/01 01:49:37;;;;;;;11.87;6.10;;;9.40;99.90;;;;;;5002382;28;20804;-80
2023/04/01 01:52:05;;;;;;;9.83;5.63;;;9.40;99.90;;;;;;5002669;28;20307;-80
2023/04/01 01:54:32;;;;;;;7.80;5.67;;;9.40;99.90;;;;;;5001525;28;20245;-79
2023/04/01 01:57:06;;;;;;;9.33;5.77;;;9.40;99.90;;;;;;4999702;28;20228;-80
2023/04/01 01:59:36;;;;;;;10.57;5.77;;;9.40;99.90;;;;;;5002231;28;20272;-80
2023/04/01 02:02:07;;;;;;;9.00;5.77;;;9.40;99.90;;;;;;4999787;28;20317;-80
2023/04/01 02:04:39;;;;;;;9.07;6.13;;;9.40;99.90;;;;;;5003253;28;20237;-81
2023/04/01 02:07:11;;;;;;;9.50;5.87;;;9.40;99.90;;;;;;5005552;28;20564;-80
2023/04/01 02:09:39;;;;;;;7.57;5.47;;;9.40;99.90;;;;;;5002813;28;20350;-81
2023/04/01 02:12:09;;;;;;;9.33;6.27;;;9.40;99.90;;;;;;5007840;28;20317;-80
2023/04/01 02:14:44;;;;;;;7.87;5.23;;;9.40;99.90;;;;;;5013920;28;20243;-81
2023/04/01 02:17:15;;;;;;;9.13;5.53;;;9.40;99.90;;;;;;5001030;28;20251;-80
2023/04/01 02:19:48;;;;;;;12.90;6.20;;;9.40;99.90;;;;;;5008310;28;20226;-80
2023/04/01 02:22:21;;;;;;;8.33;5.80;;;9.40;99.90;;;;;;5008572;28;20217;-82
2023/04/01 02:24:50;;;;;;;11.37;5.43;;;9.40;99.90;;;;;;5021592;28;20352;-81
2023/04/01 02:27:17;;;;;;;7.83;5.23;;;9.40;99.90;;;;;;5007465;28;20314;-82
2023/04/01 02:29:44;;;;;;;9.03;5.67;;;9.40;99.90;;;;;;5007890;28;20268;-80
2023/04/01 02:32:13;;;;;;;8.80;5.47;;;9.40;99.90;;;;;;5006084;28;20230;-81
2023/04/01 02:34:39;;;;;;;9.10;5.67;;;9.40;99.90;;;;;;5007946;28;20249;-82
2023/04/01 02:37:07;;;;;;;7.30;5.17;;;9.40;99.90;;;;;;5006422;28;20669;-82
2023/04/01 02:39:35;;;;;;;9.37;5.57;;;9.40;99.90;;;;;;5002669;28;20225;-81
2023/04/01 02:42:02;;;;;;;8.77;5.07;;;9.40;99.90;;;;;;5008215;28;20228;-81
2023/04/01 02:44:30;;;;;;;11.60;5.70;;;9.40;99.90;;;;;;5000200;28;20309;-79
2023/04/01 02:46:56;;;;;;;8.40;5.93;;;9.40;99.90;;;;;;5006419;28;20801;-80
2023/04/01 02:49:23;;;;;;;7.83;5.20;;;9.40;99.90;;;;;;5002398;28;20855;-81
2023/04/01 02:51:51;;;;;;;8.47;5.77;;;9.40;99.90;;;;;;5002968;28;20227;-82
2023/04/01 02:54:18;;;;;;;9.67;5.23;;;9.40;99.90;;;;;;5005703;28;20247;-82
2023/04/01 02:56:47;;;;;;;9.50;5.80;;;9.40;99.90;;;;;;4990541;28;20933;-82
2023/04/01 02:59:13;;;;;;;9.73;6.00;;;9.40;99.90;;;;;;5000267;28;20324;-83
2023/04/01 03:01:40;;;;;;;9.90;5.43;;;9.40;99.90;;;;;;4999695;28;20239;-81
2023/04/01 03:04:07;;;;;;;9.63;6.00;;;9.40;99.90;;;;;;5008174;28;20242;-78
2023/04/01 03:06:34;;;;;;;11.03;5.93;;;9.40;99.90;;;;;;5010145;28;20279;-80
2023/04/01 03:09:01;;;;;;;7.40;5.83;;;9.40;99.90;;;;;;5010283;28;20887;-80
2023/04/01 03:11:28;;;;;;;12.27;6.40;;;9.40;99.90;;;;;;5008105;28;20226;-80
2023/04/01 03:13:56;;;;;;;10.00;6.20;;;9.40;99.90;;;;;;5009901;28;20279;-80
2023/04/01 03:16:23;;;;;;;8.97;6.00;;;9.40;99.90;;;;;;5007774;28;20225;-80
2023/04/01 03:18:52;;;;;;;10.87;6.30;;;9.40;99.90;;;;;;5007969;28;20287;-80
2023/04/01 03:21:21;;;;;;;10.07;6.63;;;9.30;99.90;;;;;;5006228;28;20349;-79
2023/04/01 03:23:48;;;;;;;15.47;7.00;;;9.30;99.90;;;;;;5007501;28;20998;-81
2023/04/01 03:26:15;;;;;;;11.23;7.20;;;9.30;99.90;;;;;;5008990;28;20253;-79
2023/04/01 03:28:42;;;;;;;12.97;7.47;;;9.30;99.90;;;;;;5007593;28;20260;-80
2023/04/01 03:31:11;;;;;;;10.07;7.20;;;9.30;99.90;;;;;;5007419;28;20233;-80
2023/04/01 03:33:44;;;;;;;10.37;7.37;;;9.30;99.90;;;;;;5007268;28;20845;-80
2023/04/01 03:36:12;;;;;;;10.73;7.37;;;9.30;99.90;;;;;;5007554;28;20237;-80
2023/04/01 03:38:39;;;;;;;9.90;7.40;;;9.30;99.90;;;;;;5007689;28;20244;-80
2023/04/01 03:41:06;;;;;;;11.57;7.70;;;9.30;99.90;;;;;;5007515;28;20232;-81
2023/04/01 03:43:33;;;;;;;10.33;6.93;;;9.30;99.90;;;;;;5006942;28;20287;-80
2023/04/01 03:46:00;;;;;;;10.87;7.17;;;9.30;99.90;;;;;;5007123;28;20953;-80
2023/04/01 03:48:28;;;;;;;9.80;7.37;;;9.30;99.90;;;;;;5005577;28;20236;-79
2023/04/01 03:50:55;;;;;;;11.53;8.10;;;9.30;99.90;;;;;;4999058;28;20662;-79
2023/04/01 03:53:23;;;;;;;9.67;7.57;;;9.30;99.90;;;;;;4998454;28;20799;-79
2023/04/01 03:55:51;;;;;;;8.03;7.10;;;9.30;99.90;;;;;;5024269;28;20307;-80
2023/04/01 03:58:19;;;;;;;10.13;7.77;;;9.30;99.90;;;;;;5024114;28;20450;-80
2023/04/01 04:00:46;;;;;;;8.87;7.63;;;9.30;99.90;;;;;;5007605;28;20229;-79
2023/04/01 04:03:16;;;;;;;11.37;8.10;;;9.30;99.90;;;;;;5008086;28;20236;-80
2023/04/01 04:05:49;;;;;;;8.90;7.63;;;9.30;99.90;;;;;;5009399;28;20747;-80
2023/04/01 04:08:18;;;;;;;11.33;8.07;;;9.30;99.90;;;;;;5005100;28;20217;-80
2023/04/01 04:10:46;;;;;;;10.43;7.57;;;9.30;99.90;;;;;;5022168;28;20224;-80
2023/04/01 04:13:13;;;;;;;9.70;7.70;;;9.30;99.90;;;;;;5005255;28;20231;-80
2023/04/01 04:15:46;;;;;;;11.10;8.27;;;9.30;99.90;;;;;;5001262;28;20728;-80
2023/04/01 04:18:12;;;;;;;11.00;7.90;;;9.30;99.90;;;;;;5003164;28;20225;-80
2023/04/01 04:20:45;;;;;;;10.53;7.57;;;9.30;99.90;;;;;;5003411;28;20225;-80
2023/04/01 04:23:13;;;;;;;11.27;7.57;;;9.30;99.90;;;;;;5002036;28;20590;-81
2023/04/01 04:25:41;;;;;;;8.30;7.20;;;9.30;99.90;;;;;;5002996;28;20318;-81
2023/04/01 04:28:08;;;;;;;9.73;7.00;;;9.30;99.90;;;;;;5002992;28;20218;-81
2023/04/01 04:30:35;;;;;;;9.63;7.33;;;9.30;99.90;;;;;;5003577;28;20296;-80
2023/04/01 04:33:02;;;;;;;10.00;7.00;;;9.30;99.90;;;;;;5001235;28;20696;-80
2023/04/01 04:35:29;;;;;;;10.37;7.43;;;9.30;99.90;;;;;;5001938;28;20224;-82
2023/04/01 04:37:56;;;;;;;8.90;6.83;;;9.30;99.90;;;;;;5020090;28;20306;-81
2023/04/01 04:40:24;;;;;;;10.40;7.10;;;9.30;99.90;;;;;;4995792;28;20221;-81
2023/04/01 04:42:51;;;;;;;7.03;5.93;;;9.30;99.90;;;;;;5006975;28;20677;-84
2023/04/01 04:45:18;;;;;;;9.13;7.10;;;9.30;99.90;;;;;;5002780;28;20232;-83
2023/04/01 04:47:53;;;;;;;7.33;6.00;;;9.30;99.90;;;;;;5008878;28;20239;-82
2023/04/01 04:50:20;;;;;;;8.40;6.53;;;9.30;99.90;;;;;;5011328;28;20224;-81
2023/04/01 04:52:46;;;;;;;8.60;5.90;;;9.30;99.90;;;;;;5008097;28;20237;-82
2023/04/01 04:55:14;;;;;;;7.33;6.57;;;9.20;99.90;;;;;;5007972;28;20259;-82
2023/04/01 04:57:44;;;;;;;7.37;6.20;;;9.30;99.90;;;;;;5005871;28;20239;-82
2023/04/01 05:00:11;;;;;;;7.60;6.23;;;9.30;99.90;;;;;;5005435;28;20299;-83
2023/04/01 05:02:48;;;;;;;7.90;6.03;;;9.20;99.90;;;;;;5007111;28;20233;-83
2023/04/01 05:05:14;;;;;;;8.03;5.80;;;9.30;99.90;;;;;;5003920;28;20753;-82
2023/04/01 05:07:41;;;;;;;8.03;6.03;;;9.20;99.90;;;;;;5006000;28;21179;-81
2023/04/01 05:10:09;;;;;;;7.53;5.80;;;9.20;99.90;;;;;;4997925;28;20283;-83
2023/04/01 05:12:38;;;;;;;3.37;3.03;;;9.20;99.90;;;;;;5002901;28;20236;-83
2023/04/01 05:15:09;;;;;;;1.50;1.40;;;9.20;99.90;;;;;;5006102;28;20232;-83
2023/04/01 05:17:36;;;;;;;1.40;1.30;;;9.10;99.90;;;;;;5006484;28;20711;-83
2023/04/01 05:20:05;;;;;;;1.87;1.00;;;9.10;99.90;;;;;;5005868;28;20231;-83
2023/04/01 05:22:31;;;;;;;2.23;1.20;;;9.00;99.90;;;;;;5005822;28;20560;-83
2023/04/01 05:24:58;;;;;;;2.33;1.40;;;8.90;99.90;;;;;;5016007;28;20288;-84
2023/04/01 05:27:25;;;;;;;2.47;1.33;;;8.80;99.90;;;;;;5003350;28;20244;-86
2023/04/01 05:29:52;;;;;;;1.53;1.17;;;8.70;99.90;;;;;;5005171;28;20247;-83
2023/04/01 05:32:40;;;;;;;1.87;1.10;;;8.60;99.90;;;;;;5003320;28;20251;-85
2023/04/01 05:35:08;;;;;;;1.40;1.20;;;8.40;99.90;;;;;;5003561;28;20813;-84
2023/04/01 05:37:35;;;;;;;1.40;1.20;;;8.40;99.90;;;;;;5001991;28;20324;-83
2023/04/01 05:40:02;;;;;;;1.10;1.00;;;8.20;99.90;;;;;;5005212;28;20239;-84
2023/04/01 05:42:29;;;;;;;1.33;1.00;;;8.10;99.90;;;;;;4985186;28;20244;-83
2023/04/01 05:44:56;;;;;;;1.27;1.17;;;8.00;99.90;;;;;;4996933;28;20229;-83
2023/04/01 05:47:50;;;;;;;1.80;0.90;;;7.90;99.90;;;;;;5007135;28;20224;-83
2023/04/01 05:50:19;;;;;;;1.60;1.10;;;7.70;99.90;;;;;;5009425;28;20298;-84
2023/04/01 05:52:45;;;;;;;1.90;1.30;;;7.60;99.90;;;;;;5010757;28;20944;-83
2023/04/01 05:55:12;;;;;;;1.10;1.00;;;7.60;99.90;;;;;;5007714;28;20243;-83
2023/04/01 05:57:39;;;;;;;2.33;1.60;;;7.50;99.90;;;;;;5007934;28;20913;-85
2023/04/01 06:00:07;;;;;;;1.37;1.27;;;7.40;99.90;;;;;;5009439;28;20254;-84
2023/04/01 06:02:39;;;;;;;2.70;1.30;;;7.30;99.90;;;;;;4995392;28;20236;-84
2023/04/01 06:05:17;;;;;;;2.07;1.20;;;7.30;99.90;;;;;;5023996;28;20219;-83
2023/04/01 06:07:44;;;;;;;2.03;1.53;;;7.30;99.90;;;;;;5006398;28;20222;-82
2023/04/01 06:10:14;;;;;;;1.20;1.10;;;7.20;99.90;;;;;;5011658;28;20230;-84
2023/04/01 06:12:51;;;;;;;1.40;1.03;;;7.10;99.90;;;;;;5011495;28;20220;-83
2023/04/01 06:15:26;;;;;;;0.80;0.70;;;7.10;99.90;;;;;;5012119;28;20231;-83
2023/04/01 06:18:26;;;;;;;1.20;0.97;;;7.00;99.90;;;;;;5012869;28;20226;-84
2023/04/01 06:21:02;;;;;;;0.87;0.80;;;7.00;99.90;;;;;;5007920;28;20259;-83
2023/04/01 06:23:42;;;;;;;0.63;0.63;;;6.90;99.90;;;;;;5026893;28;20289;-83
2023/04/01 06:26:25;;;;;;;1.53;1.20;;;6.90;99.90;;;;;;5005471;28;20298;-85
2023/04/01 06:29:20;;;;;;;1.00;0.70;;;6.80;99.90;;;;;;5003871;28;20309;-83
2023/04/01 06:32:01;;;;;;;0.77;0.63;;;6.70;99.90;;;;;;5024634;28;20250;-83
2023/04/01 06:35:05;;;;;;;0.70;0.67;;;6.70;99.90;;;;;;5009738;28;20739;-83
2023/04/01 06:38:01;;;;;;;0.70;0.60;;;6.60;99.90;;;;;;4998769;28;20233;-84
2023/04/01 06:40:49;;;;;;;6.83;1.13;;;6.60;99.90;;;;;;5001331;28;20235;-82
2023/04/01 06:43:21;;;;;;;2.50;0.80;;;6.50;99.90;;;;;;4985449;28;20358;-84
2023/04/01 06:46:31;;;;;;;0.83;0.80;;;6.50;99.90;;;;;;4945568;28;20233;-83
2023/04/01 06:49:33;;;;;;;46.10;4.73;;;6.50;99.90;;;;;;4980753;28;20743;-84
2023/04/01 06:52:24;;;;;;;30.53;3.00;;;6.50;99.90;;;;;;4981132;28;20267;-83
2023/04/01 06:55:24;;;;;;;1.07;0.80;;;6.50;99.90;;;;;;4986234;28;20308;-83
2023/04/01 06:58:21;;;;;;;14.27;1.47;;;6.40;99.90;;;;;;4984295;28;20252;-84
2023/04/01 07:00:52;;;;;;;9.13;1.43;;;6.40;99.90;;;;;;4987515;28;20305;-83
2023/04/01 07:03:23;;;;;;;37.20;2.57;;;6.40;99.90;;;;;;4987426;28;20347;-84
2023/04/01 07:05:51;;;;;;;16.40;1.93;;;6.40;99.90;;;;;;5000814;28;20302;-83
2023/04/01 07:08:22;;;;;;;11.93;1.60;;;6.40;99.90;;;;;;4981048;28;20216;-82
2023/04/01 07:10:54;;;;;;;9.43;0.90;;;6.30;99.90;;;;;;4983147;28;20306;-82
2023/04/01 07:13:45;;;;;;;3.77;1.03;;;6.30;99.90;;;;;;4982931;28;20853;-81
2023/04/01 07:16:20;;;;;;;1.30;0.70;;;6.30;99.90;;;;;;4984346;28;20233;-80
2023/04/01 07:18:50;;;;;;;1.47;0.80;;;6.30;99.90;;;;;;4972306;28;20235;-80
2023/04/01 07:21:26;;;;;;;4.13;1.40;;;6.20;99.90;;;;;;4984121;28;20237;-80
2023/04/01 07:23:57;;;;;;;2.37;0.83;;;6.20;99.90;;;;;;4997930;28;20321;-80
2023/04/01 07:26:36;;;;;;;1.43;0.60;;;6.20;99.90;;;;;;4981907;28;20224;-80
2023/04/01 07:29:16;;;;;;;0.90;0.80;;;6.10;99.90;;;;;;4985430;28;20230;-80
2023/04/01 07:32:08;;;;;;;1.10;0.63;;;6.10;99.90;;;;;;4991434;28;20745;-80
2023/04/01 07:34:44;;;;;;;0.50;0.50;;;6.20;99.90;;;;;;4988547;28;20866;-80
2023/04/01 07:37:17;;;;;;;1.13;1.03;;;6.10;99.90;;;;;;5001010;28;20230;-80
2023/04/01 07:39:54;;;;;;;1.80;0.80;;;6.20;99.90;;;;;;4996896;28;20309;-82
2023/04/01 07:42:48;;;;;;;1.77;0.67;;;6.20;99.90;;;;;;5007737;28;20311;-80
2023/04/01 07:45:23;;;;;;;1.47;0.60;;;6.20;99.90;;;;;;5013177;28;20773;-81
2023/04/01 07:48:02;;;;;;;1.13;0.60;;;6.20;99.90;;;;;;5006564;28;20222;-82
2023/04/01 07:50:31;;;;;;;0.83;0.70;;;6.20;99.90;;;;;;5004539;28;20226;-81
2023/04/01 07:53:08;;;;;;;0.70;0.67;;;6.20;99.90;;;;;;5005817;28;20984;-81
2023/04/01 07:55:41;;;;;;;1.07;0.60;;;6.30;99.90;;;;;;4997657;28;22068;-80
2023/04/01 07:58:15;;;;;;;0.97;0.77;;;6.30;99.90;;;;;;5003995;28;20248;-80
2023/04/01 08:00:50;;;;;;;0.60;0.60;;;6.30;99.90;;;;;;5002377;28;20301;-80
2023/04/01 08:03:44;;;;;;;0.87;0.70;;;6.40;99.90;;;;;;5004999;28;20245;-80
2023/04/01 08:06:19;;;;;;;0.80;0.60;;;6.40;99.90;;;;;;5003237;28;20750;-81
2023/04/01 08:08:58;;;;;;;1.50;0.60;;;6.40;99.90;;;;;;5002225;28;20222;-80
2023/04/01 08:12:00;;;;;;;1.20;0.70;;;6.30;99.90;;;;;;5005457;28;20635;-80
2023/04/01 08:15:11;;;;;;;0.97;0.77;;;6.30;99.90;;;;;;4977499;28;20244;-80
2023/04/01 08:18:10;;;;;;;1.10;1.00;;;6.10;99.90;;;;;;5016647;28;20220;-81
2023/04/01 08:20:43;;;;;;;1.30;0.70;;;6.10;99.90;;;;;;5021313;28;20726;-81
2023/04/01 08:23:14;;;;;;;0.83;0.70;;;6.00;99.90;;;;;;5004746;28;20225;-80
2023/04/01 08:25:47;;;;;;;1.00;0.77;;;6.00;99.90;;;;;;5002292;28;20308;-81
2023/04/01 08:28:20;;;;;;;0.93;0.63;;;6.00;99.90;;;;;;4999658;28;20235;-81
2023/04/01 08:30:53;;;;;;;0.87;0.53;;;6.10;99.90;;;;;;5007208;28;20279;-81
2023/04/01 08:33:24;;;;;;;0.70;0.70;;;6.10;99.90;;;;;;5016807;28;20223;-81
2023/04/01 08:36:00;;;;;;;0.60;0.60;;;6.10;99.90;;;;;;5005586;28;20732;-81
2023/04/01 08:38:31;;;;;;;0.93;0.60;;;6.10;99.90;;;;;;5004186;28;20231;-81
2023/04/01 08:41:01;;;;;;;0.83;0.70;;;6.10;99.90;;;;;;5022659;28;20310;-82
2023/04/01 08:44:24;;;;;;;0.60;0.50;;;6.20;99.90;;;;;;4993074;28;20238;-81
2023/04/01 08:47:14;;;;;;;0.80;0.50;;;6.20;99.90;;;;;;5004083;28;20229;-81
2023/04/01 08:50:24;;;;;;;0.80;0.70;;;6.30;99.90;;;;;;5001356;28;20233;-81
2023/04/01 08:53:21;;;;;;;0.60;0.60;;;6.30;99.90;;;;;;4985665;28;20230;-81
2023/04/01 08:56:02;;;;;;;0.67;0.60;;;6.40;99.90;;;;;;4984849;28;20222;-80
2023/04/01 08:59:16;;;;;;;0.97;0.70;;;6.40;99.90;;;;;;4982526;28;20222;-81
2023/04/01 09:02:26;;;;;;;0.70;0.57;;;6.40;99.90;;;;;;4957092;28;20253;-81
2023/04/01 09:05:23;;;;;;;0.73;0.60;;;6.50;99.90;;;;;;4925628;29;20216;-80
2023/04/01 09:07:59;;;;;;;0.53;0.53;;;6.50;99.90;;;;;;4928466;29;20263;-81
2023/04/01 09:10:44;;;;;;;1.33;0.60;;;6.60;99.90;;;;;;4966857;28;20328;-79
2023/04/01 09:13:54;;;;;;;0.80;0.70;;;6.60;99.90;;;;;;4977639;28;20646;-80
2023/04/01 09:16:36;;;;;;;1.67;0.70;;;6.70;99.90;;;;;;4995693;28;20320;-81
2023/04/01 09:19:17;;;;;;;0.70;0.70;;;6.70;99.90;;;;;;4976779;28;20231;-82
2023/04/01 09:22:00;;;;;;;1.07;0.80;;;6.70;99.90;;;;;;4979710;28;20322;-82
2023/04/01 09:24:47;;;;;;;1.30;0.70;;;6.70;99.90;;;;;;4987072;28;20290;-82
2023/04/01 09:27:28;;;;;;;0.70;0.70;;;6.70;99.90;;;;;;4980830;28;20317;-83
2023/04/01 09:30:20;;;;;;;0.60;0.60;;;6.60;99.90;;;;;;4983054;28;20287;-82
2023/04/01 09:33:22;;;;;;;1.00;0.87;;;6.60;99.90;;;;;;4982493;28;20261;-82
2023/04/01 09:36:03;;;;;;;1.30;1.00;;;6.60;99.90;;;;;;4958007;28;20708;-82
2023/04/01 09:38:39;;;;;;;1.47;0.70;;;6.50;99.90;;;;;;4983684;28;20746;-82
2023/04/01 09:41:15;;;;;;;0.77;0.60;;;6.60;99.90;;;;;;4981612;28;20248;-81
2023/04/01 09:44:10;;;;;;;1.17;0.50;;;6.60;99.90;;;;;;4980955;28;20219;-80
2023/04/01 09:47:02;;;;;;;1.70;0.50;;;6.60;99.90;;;;;;4982914;28;20274;-80
2023/04/01 09:49:48;;;;;;;0.40;0.40;;;6.60;99.90;;;;;;5000219;28;20277;-81
2023/04/01 09:52:39;;;;;;;0.50;0.50;;;6.60;99.90;;;;;;4985469;28;20219;-82
2023/04/01 09:56:00;;;;;;;1.00;0.60;;;6.60;99.90;;;;;;4983416;28;20266;-81
2023/04/01 09:59:06;;;;;;;0.83;0.70;;;6.70;99.90;;;;;;4966820;28;20224;-81
2023/04/01 10:02:24;;;;;;;1.73;0.80;;;6.70;99.90;;;;;;4980693;28;20230;-81
2023/04/01 10:05:34;;;;;;;0.60;0.50;;;6.70;99.90;;;;;;4995318;28;20236;-81
2023/04/01 10:08:24;;;;;;;1.43;0.60;;;6.70;99.90;;;;;;4970728;28;20272;-81
2023/04/01 10:11:31;;;;;;;0.80;0.50;;;6.80;99.90;;;;;;5000272;28;20465;-81
2023/04/01 10:14:34;;;;;;;0.43;0.43;;;6.80;99.90;;;;;;4983303;28;20246;-81
2023/04/01 10:17:31;;;;;;;0.50;0.33;;;6.80;99.90;;;;;;4949236;28;20374;-81
2023/04/01 10:20:19;;;;;;;0.40;0.40;;;6.80;99.90;;;;;;4982753;28;20277;-81
2023/04/01 10:23:21;;;;;;;0.60;0.40;;;6.80;99.90;;;;;;4990373;28;20226;-80
2023/04/01 10:26:25;;;;;;;1.00;0.50;;;6.70;99.90;;;;;;5003334;28;20222;-81
2023/04/01 10:29:36;;;;;;;0.47;0.40;;;6.70;99.90;;;;;;4991540;28;20282;-81
2023/04/01 10:32:23;;;;;;;0.77;0.60;;;6.80;99.90;;;;;;4991948;28;20224;-81
2023/04/01 10:35:25;;;;;;;0.60;0.50;;;6.80;99.90;;;;;;4972642;28;20226;-81
2023/04/01 10:38:19;;;;;;;0.70;0.40;;;6.90;99.90;;;;;;5001608;28;20246;-81
2023/04/01 10:41:11;;;;;;;0.43;0.43;;;6.90;99.90;;;;;;4983392;28;20248;-81
2023/04/01 10:44:44;;;;;;;0.80;0.50;;;7.00;99.90;;;;;;5004652;28;20227;-81
2023/04/01 10:47:49;;;;;;;0.50;0.40;;;7.00;99.90;;;;;;5001292;28;20213;-81
2023/04/01 10:50:26;;;;;;;0.77;0.60;;;7.00;99.90;;;;;;5005310;28;20225;-81
2023/04/01 10:53:28;;;;;;;0.40;0.40;;;7.00;99.90;;;;;;5000239;28;20292;-81
2023/04/01 10:56:40;;;;;;;0.47;0.47;;;6.90;99.90;;;;;;5004378;28;20249;-81
2023/04/01 11:00:17;;;;;;;0.80;0.50;;;6.90;99.90;;;;;;5005829;28;20224;-81
2023/04/01 11:03:45;;;;;;;0.67;0.60;;;6.90;99.90;;;;;;5003256;28;20610;-81
2023/04/01 11:07:01;;;;;;;1.37;0.70;;;6.90;99.90;;;;;;5001269;28;20238;-81
2023/04/01 11:10:19;;;;;;;0.80;0.73;;;6.90;99.90;;;;;;4988892;28;20238;-81
2023/04/01 11:13:19;;;;;;;0.70;0.70;;;6.90;99.90;;;;;;5004694;28;20226;-81
2023/04/01 11:16:20;;;;;;;1.07;0.70;;;6.90;99.90;;;;;;5005867;28;20641;-81
2023/04/01 11:19:21;;;;;;;0.70;0.70;;;6.90;99.90;;;;;;5002497;28;20293;-81
2023/04/01 11:22:10;;;;;;;1.27;0.80;;;6.90;99.90;;;;;;4986328;28;20520;-81
2023/04/01 11:25:15;;;;;;;0.93;0.83;;;6.90;99.90;;;;;;4990936;28;20238;-81
2023/04/01 11:28:23;;;;;;;1.30;0.90;;;6.90;99.90;;;;;;4985871;28;20218;-81
2023/04/01 11:31:08;;;;;;;1.40;1.10;;;6.90;99.90;;;;;;4990701;28;20280;-81
2023/04/01 11:33:38;;;;;;;1.13;1.03;;;6.90;99.90;;;;;;5011544;28;20232;-81
2023/04/01 11:36:21;;;;;;;1.73;1.60;;;7.00;99.90;;;;;;5007110;28;20238;-81
2023/04/01 11:39:09;;;;;;;1.40;1.30;;;6.90;99.90;;;;;;5006669;28;20226;-81
2023/04/01 11:42:20;;;;;;;1.57;1.47;;;6.90;99.90;;;;;;5007026;28;20223;-81
2023/04/01 11:45:23;;;;;;;3.30;1.80;;;7.00;99.90;;;;;;5002658;28;20811;-80
2023/04/01 11:48:07;;;;;;;2.50;2.03;;;6.90;99.90;;;;;;5006051;28;20221;-80
2023/04/01 11:50:45;;;;;;;3.40;2.03;;;6.90;99.90;;;;;;5005900;28;20239;-80
2023/04/01 11:53:24;;;;;;;2.87;2.27;;;6.80;99.90;;;;;;5005786;28;20232;-80
2023/04/01 11:56:10;;;;;;;3.87;2.20;;;6.70;99.90;;;;;;5008008;28;20232;-80
2023/04/01 11:58:59;;;;;;;3.53;2.23;;;6.70;99.90;;;;;;5003931;28;20250;-81
2023/04/01 12:01:37;;;;;;;2.97;2.17;;;6.60;99.90;;;;;;5007290;28;20223;-80
2023/04/01 12:04:30;;;;;;;3.07;2.30;;;6.70;99.90;;;;;;5000683;28;20248;-80
2023/04/01 12:07:07;;;;;;;3.60;2.43;;;6.70;99.90;;;;;;5000393;28;20228;-80
2023/04/01 12:09:46;;;;;;;2.97;2.00;;;6.70;99.90;;;;;;4996104;28;20665;-80
2023/04/01 12:12:21;;;;;;;3.53;2.60;;;6.70;99.90;;;;;;4997860;28;20321;-80
2023/04/01 12:15:00;;;;;;;6.20;2.93;;;6.70;99.90;;;;;;4985836;28;20241;-80
2023/04/01 12:17:37;;;;;;;2.20;2.00;;;6.70;99.90;;;;;;5003543;28;20608;-80
2023/04/01 12:20:25;;;;;;;3.80;2.67;;;6.70;99.90;;;;;;4981284;28;20243;-80
2023/04/01 12:23:02;;;;;;;3.67;2.80;;;6.70;99.90;;;;;;4992769;28;20239;-80
2023/04/01 12:25:46;;;;;;;3.37;2.50;;;6.70;99.90;;;;;;4984126;28;20223;-80
2023/04/01 12:28:25;;;;;;;4.43;2.80;;;6.60;99.90;;;;;;5000472;28;20230;-80
2023/04/01 12:31:07;;;;;;;4.03;2.77;;;6.60;99.90;;;;;;4994740;28;20227;-80
2023/04/01 12:33:53;;;;;;;4.10;2.77;;;6.50;99.90;;;;;;4998550;28;20229;-80
2023/04/01 12:36:41;;;;;;;4.73;3.20;;;6.50;99.90;;;;;;4994964;28;20248;-80
2023/04/01 12:40:05;;;;;;;3.57;2.47;;;6.40;99.90;;;;;;4980000;28;20272;-80
2023/04/01 12:42:48;;;;;;;2.93;2.37;;;6.30;99.90;;;;;;4947570;28;20227;-79
2023/04/01 12:45:33;;;;;;;3.63;3.00;;;6.30;99.90;;;;;;4962013;28;20226;-82
2023/04/01 12:48:42;;;;;;;3.33;2.70;;;6.20;99.90;;;;;;4993801;28;20233;-80
2023/04/01 12:51:37;;;;;;;3.67;2.53;;;6.20;99.90;;;;;;4956396;28;20316;-80
2023/04/01 12:54:25;;;;;;;5.07;2.80;;;6.30;99.90;;;;;;4978351;28;20234;-80
2023/04/01 12:57:04;;;;;;;2.83;2.30;;;6.20;99.90;;;;;;4978321;28;20728;-80
2023/04/01 12:59:51;;;;;;;5.63;2.60;;;6.20;99.90;;;;;;4994269;28;20319;-80
2023/04/01 13:02:27;;;;;;;3.60;2.30;;;6.10;99.90;;;;;;4998215;28;20786;-80
2023/04/01 13:05:20;;;;;;;4.37;2.50;;;6.00;99.90;;;;;;4989502;28;20308;-80
2023/04/01 13:07:57;;;;;;;5.73;2.50;;;6.00;99.90;;;;;;4984714;28;20302;-80
2023/04/01 13:10:48;;;;;;;4.57;2.47;;;6.00;99.90;;;;;;4995839;28;20722;-80
2023/04/01 13:13:35;;;;;;;3.10;2.70;;;5.90;99.90;;;;;;4997866;28;20708;-80
2023/04/01 13:16:08;;;;;;;4.53;2.57;;;5.90;99.90;;;;;;5022899;28;20307;-80
2023/04/01 13:18:45;;;;;;;5.13;2.40;;;5.80;99.90;;;;;;4983743;28;20240;-80
2023/04/01 13:21:18;;;;;;;4.90;2.63;;;5.80;99.90;;;;;;4995183;28;20244;-80
2023/04/01 13:23:56;;;;;;;4.27;2.57;;;5.80;99.90;;;;;;5004033;28;20227;-80
2023/04/01 13:26:31;;;;;;;3.53;2.47;;;5.80;99.90;;;;;;4997959;28;20224;-80
2023/04/01 13:29:05;;;;;;;7.70;2.90;;;5.80;99.90;;;;;;4997982;28;20224;-80
2023/04/01 13:31:59;;;;;;;3.37;2.40;;;5.80;99.90;;;;;;4996581;28;20240;-80
2023/04/01 13:34:41;;;;;;;3.17;2.17;;;5.80;99.90;;;;;;4994908;28;20233;-80
2023/04/01 13:37:30;;;;;;;4.07;2.33;;;5.80;99.90;;;;;;4991370;28;20228;-80
2023/04/01 13:40:17;;;;;;;3.43;2.50;;;5.80;99.90;;;;;;4985184;28;20247;-80
2023/04/01 13:42:50;;;;;;;2.97;2.33;;;5.80;99.90;;;;;;4987713;28;20266;-80
2023/04/01 13:45:20;;;;;;;5.67;2.80;;;5.80;99.90;;;;;;4982675;28;20309;-80
2023/04/01 13:48:26;;;;;;;6.17;3.07;;;5.80;99.90;;;;;;4983806;28;20222;-79
2023/04/01 13:51:17;;;;;;;4.40;3.03;;;5.80;99.90;;;;;;4982212;28;20232;-79
2023/04/01 13:54:24;;;;;;;3.67;2.80;;;5.80;99.90;;;;;;4994760;28;20229;-79
2023/04/01 13:57:04;;;;;;;5.70;3.23;;;5.80;99.90;;;;;;5016770;28;20232;-81
2023/04/01 13:59:49;;;;;;;4.17;2.87;;;5.70;99.90;;;;;;4995089;28;20221;-79